createdAt,value
2023-02-14T17:02:09.948Z,20.20
2023-02-14T17:03:42.756Z,29.60
2023-02-14T17:05:14.926Z,24.00
2023-02-14T17:06:54.909Z,29.80
2023-02-14T17:08:26.901Z,15.80
2023-02-14T17:10:06.623Z,23.40
2023-02-14T17:11:40.447Z,29.20
2023-02-14T17:13:12.539Z,20.00
2023-02-14T17:14:46.278Z,19.20
2023-02-14T17:16:18.267Z,26.20
2023-02-14T17:17:50.403Z,22.20
2023-02-14T17:19:22.345Z,23.40
2023-02-14T17:20:54.551Z,24.60
2023-02-14T17:22:26.517Z,23.40
2023-02-14T17:23:58.685Z,25.00
2023-02-14T17:25:30.766Z,27.80
2023-02-14T17:27:02.600Z,23.40
2023-02-14T17:28:34.545Z,27.00
2023-02-14T17:30:07.453Z,20.60
2023-02-14T17:31:39.529Z,24.20
2023-02-14T17:33:11.587Z,31.40
2023-02-14T17:34:43.577Z,27.40
2023-02-14T17:36:15.547Z,23.40
2023-02-14T17:37:47.494Z,21.60
2023-02-14T17:39:19.381Z,28.60
2023-02-14T17:40:51.285Z,23.75
2023-02-14T17:42:23.219Z,29.40
2023-02-14T17:43:55.532Z,21.40
2023-02-14T17:45:27.475Z,22.00
2023-02-14T17:46:59.495Z,26.80
2023-02-14T17:48:31.408Z,28.20
2023-02-14T17:50:04.075Z,21.20
2023-02-14T17:51:35.986Z,24.80
2023-02-14T17:53:07.990Z,12.80
2023-02-14T17:54:40.099Z,24.80
2023-02-14T17:56:20.289Z,30.80
2023-02-14T17:57:52.836Z,28.00
2023-02-14T17:59:24.693Z,24.00
2023-02-14T18:01:08.190Z,27.60
2023-02-14T18:02:40.523Z,26.20
2023-02-14T18:04:12.666Z,24.60
2023-02-14T18:05:44.645Z,22.80
2023-02-14T18:07:16.688Z,22.00
2023-02-14T18:08:53.802Z,27.80
2023-02-14T18:10:25.696Z,28.40
2023-02-14T18:11:57.814Z,26.40
2023-02-14T18:13:29.733Z,25.20
2023-02-14T18:15:01.676Z,29.80
2023-02-14T18:16:33.768Z,25.60
2023-02-14T18:18:06.441Z,26.80
2023-02-14T18:19:38.357Z,18.40
2023-02-14T18:21:12.575Z,27.00
2023-02-14T18:22:44.391Z,25.80
2023-02-14T18:24:16.508Z,16.40
2023-02-14T18:25:55.743Z,21.80
2023-02-14T18:27:27.748Z,28.40
2023-02-14T18:29:01.147Z,24.40
2023-02-14T18:30:33.147Z,25.00
2023-02-14T18:32:05.361Z,27.80
2023-02-14T18:33:37.400Z,23.20
2023-02-14T18:35:09.356Z,26.60
2023-02-14T18:36:41.982Z,35.20
2023-02-14T18:38:13.859Z,35.20
2023-02-14T18:39:45.951Z,49.20
2023-02-14T18:41:18.659Z,55.60
2023-02-14T18:42:50.711Z,60.80
2023-02-14T18:44:22.600Z,61.50
2023-02-14T18:45:54.881Z,66.25
2023-02-14T18:47:26.851Z,74.75
2023-02-14T18:48:59.127Z,81.75
2023-02-14T18:50:31.208Z,91.50
2023-02-14T18:52:05.073Z,82.50
2023-02-14T18:53:37.656Z,105.60
2023-02-14T18:55:09.900Z,103.20
2023-02-14T18:56:41.891Z,121.00
2023-02-14T18:58:13.850Z,125.00
2023-02-14T18:59:45.742Z,134.25
2023-02-14T19:01:22.118Z,128.25
2023-02-14T19:02:54.110Z,150.25
2023-02-14T19:04:26.247Z,142.50
2023-02-14T19:05:59.961Z,157.50
2023-02-14T19:07:32.150Z,160.75
2023-02-14T19:09:07.115Z,164.75
2023-02-14T19:10:39.028Z,163.00
2023-02-14T19:12:11.143Z,180.50
2023-02-14T19:13:51.007Z,178.25
2023-02-14T19:15:22.969Z,181.25
2023-02-14T19:16:55.525Z,167.50
2023-02-14T19:18:27.490Z,190.00
2023-02-14T19:19:59.972Z,173.75
2023-02-14T19:21:36.896Z,192.00
2023-02-14T19:23:08.849Z,191.75
2023-02-14T19:24:41.156Z,183.25
2023-02-14T19:26:17.290Z,178.75
2023-02-14T19:27:49.438Z,164.50
2023-02-14T19:29:21.936Z,198.50
2023-02-14T19:30:53.885Z,187.00
2023-02-14T19:32:26.223Z,179.25
2023-02-14T19:33:58.204Z,181.75
2023-02-14T19:35:30.188Z,166.50
2023-02-14T19:37:02.564Z,165.25
2023-02-14T19:38:34.954Z,171.50
2023-02-14T19:40:07.581Z,175.75
2023-02-14T19:41:40.254Z,178.00
2023-02-14T19:43:12.120Z,174.25
2023-02-14T19:44:46.100Z,162.00
2023-02-14T19:46:19.169Z,155.25
2023-02-14T19:47:51.061Z,148.75
2023-02-14T19:49:23.216Z,135.25
2023-02-14T19:50:55.160Z,134.50
2023-02-14T19:52:28.369Z,144.50
2023-02-14T19:54:01.226Z,139.25
2023-02-14T19:55:33.105Z,138.50
2023-02-14T19:57:05.020Z,139.75
2023-02-14T19:58:37.037Z,128.50
2023-02-14T20:00:11.391Z,133.25
2023-02-14T20:01:46.382Z,166.00
2023-02-14T20:03:18.434Z,154.25
2023-02-14T20:04:50.372Z,164.25
2023-02-14T20:06:22.744Z,150.75
2023-02-14T20:07:55.059Z,157.00
2023-02-14T20:09:27.166Z,156.00
2023-02-14T20:10:59.386Z,177.75
2023-02-14T20:12:31.489Z,181.00
2023-02-14T20:14:03.461Z,162.00
2023-02-14T20:15:35.546Z,160.00
2023-02-14T20:17:08.015Z,181.25
2023-02-14T20:18:39.961Z,162.00
2023-02-14T20:20:13.909Z,171.50
2023-02-14T20:21:47.114Z,158.25
2023-02-14T20:23:19.130Z,170.00
2023-02-14T20:24:51.084Z,164.25
2023-02-14T20:26:23.004Z,156.25
2023-02-14T20:27:55.047Z,179.25
2023-02-14T20:29:26.920Z,189.00
2023-02-14T20:30:58.988Z,195.75
2023-02-14T20:32:31.060Z,181.50
2023-02-14T20:34:03.042Z,176.00
2023-02-14T20:35:39.603Z,181.75
2023-02-14T20:37:11.550Z,190.75
2023-02-14T20:38:43.413Z,192.25
2023-02-14T20:40:16.388Z,187.00
2023-02-14T20:41:50.402Z,187.75
2023-02-14T20:43:24.444Z,194.25
2023-02-14T20:44:56.342Z,197.25
2023-02-14T20:46:29.200Z,207.00
2023-02-14T20:48:04.299Z,168.75
2023-02-14T20:49:36.400Z,184.50
2023-02-14T20:51:15.911Z,188.50
2023-02-14T20:52:47.957Z,186.50
2023-02-14T20:54:20.732Z,181.25
2023-02-14T20:55:52.894Z,186.50
2023-02-14T20:57:24.916Z,174.50
2023-02-14T20:58:56.840Z,178.75
2023-02-14T21:00:31.846Z,161.75
2023-02-14T21:02:03.924Z,180.75
2023-02-14T21:03:38.757Z,183.00
2023-02-14T21:05:10.748Z,187.25
2023-02-14T21:06:42.613Z,173.25
2023-02-14T21:08:14.685Z,177.25
2023-02-14T21:09:46.606Z,180.25
2023-02-14T21:11:19.930Z,179.25
2023-02-14T21:12:53.806Z,199.25
2023-02-14T21:14:25.766Z,173.75
2023-02-14T21:16:08.705Z,183.75
2023-02-14T21:17:40.746Z,192.50
2023-02-14T21:19:12.797Z,168.00
2023-02-14T21:20:44.745Z,183.50
2023-02-14T21:22:17.153Z,175.50
2023-02-14T21:23:49.979Z,185.25
2023-02-14T21:25:24.176Z,173.75
2023-02-14T21:26:57.225Z,171.75
2023-02-14T21:28:29.246Z,176.00
2023-02-14T21:30:01.300Z,158.50
2023-02-14T21:31:33.397Z,177.50
2023-02-14T21:33:05.306Z,169.25
2023-02-14T21:34:37.221Z,162.75
2023-02-14T21:36:13.443Z,161.25
2023-02-14T21:37:45.305Z,151.00
2023-02-14T21:39:17.579Z,180.50
2023-02-14T21:40:49.611Z,162.50
2023-02-14T21:42:21.622Z,148.75
2023-02-14T21:43:53.941Z,140.50
2023-02-14T21:45:44.400Z,154.75
2023-02-14T21:47:16.280Z,156.00
2023-02-14T21:49:06.603Z,157.25
2023-02-14T21:50:38.560Z,156.75
2023-02-14T21:52:10.470Z,157.50
2023-02-14T21:53:42.977Z,158.25
2023-02-14T21:55:14.989Z,168.50
2023-02-14T21:56:46.926Z,162.00
2023-02-14T21:58:18.913Z,141.50
2023-02-14T21:59:50.787Z,151.75
2023-02-14T22:01:31.142Z,157.00
2023-02-14T22:03:03.066Z,176.50
2023-02-14T22:04:35.693Z,190.75
2023-02-14T22:06:07.766Z,172.75
2023-02-14T22:07:39.715Z,161.75
2023-02-14T22:09:13.322Z,145.00
2023-02-14T22:10:45.288Z,156.75
2023-02-14T22:12:17.253Z,134.00
2023-02-14T22:13:49.118Z,131.00
2023-02-14T22:15:21.016Z,128.25
2023-02-14T22:16:52.943Z,130.75
2023-02-14T22:18:24.885Z,136.50
2023-02-14T22:19:56.701Z,134.50
2023-02-14T22:21:28.742Z,128.50
2023-02-14T22:23:00.655Z,135.25
2023-02-14T22:24:32.589Z,120.50
2023-02-14T22:26:24.374Z,116.25
2023-02-14T22:27:56.306Z,116.50
2023-02-14T22:29:29.184Z,115.60
2023-02-14T22:31:01.315Z,104.20
2023-02-14T22:32:33.527Z,105.80
2023-02-14T22:34:06.209Z,104.00
2023-02-14T22:35:39.129Z,102.20
2023-02-14T22:37:11.103Z,96.40
2023-02-14T22:38:43.090Z,98.00
2023-02-14T22:40:14.929Z,99.75
2023-02-14T22:41:47.729Z,93.25
2023-02-14T22:43:19.634Z,93.50
2023-02-14T22:44:51.514Z,92.75
2023-02-14T22:46:25.077Z,88.75
2023-02-14T22:47:57.020Z,88.50
2023-02-14T22:49:29.001Z,92.75
2023-02-14T22:51:28.127Z,86.50
2023-02-14T22:53:00.045Z,85.00
2023-02-14T22:54:31.935Z,76.75
2023-02-14T22:56:16.492Z,98.75
2023-02-14T22:57:48.354Z,87.00
2023-02-14T22:59:24.706Z,81.75
2023-02-14T23:00:56.551Z,79.25
2023-02-14T23:02:28.557Z,79.25
2023-02-14T23:04:01.178Z,74.00
2023-02-14T23:05:33.098Z,73.75
2023-02-14T23:07:05.016Z,69.75
2023-02-14T23:08:43.668Z,74.25
2023-02-14T23:10:15.627Z,77.50
2023-02-14T23:11:47.659Z,83.00
2023-02-14T23:13:38.083Z,87.00
2023-02-14T23:15:29.206Z,94.25
2023-02-14T23:17:16.316Z,86.25
2023-02-14T23:19:07.035Z,90.75
2023-02-14T23:20:57.635Z,95.75
2023-02-14T23:22:31.377Z,96.25
2023-02-14T23:24:03.410Z,249.67
2023-02-14T23:25:35.310Z,161.50
2023-02-14T23:27:07.503Z,171.50
2023-02-14T23:28:39.380Z,160.25
2023-02-14T23:30:17.665Z,124.25
2023-02-14T23:31:49.620Z,138.75
2023-02-14T23:33:21.622Z,149.75
2023-02-14T23:34:53.464Z,133.00
